Terminal Aerodrome Forecast
Issued by NWS

Home | Current Version | Previous Version | Text Only | Print | Product List | Glossary On
Versions: 1 2 3 4 5 6 7 8 9 10 11 12 13 14 15 16 17 18 19 20 21 22
000
FTUS44 KLIX 181120
TAFGPT
TAF
KGPT 181120Z 1812/1912 00000KT 1/4SM FG VV002
      TEMPO 1813/1816 1SM BR OVC005
     FM181600 15005KT 4SM BR BKN005
     FM181700 15005KT P6SM BKN010
     FM181900 15006KT P6SM VCSH OVC040
     FM190600 17005KT 5SM -RA BR BKN005 OVC030=

USA.gov is the U.S. government's official web portal to all federal, state and local government web resources and services.